createdAt,value
2023-03-21T00:02:06.064Z,21.00
2023-03-21T00:07:08.483Z,22.10
2023-03-21T00:12:14.765Z,21.30
2023-03-21T00:17:33.307Z,18.00
2023-03-21T00:22:36.166Z,20.60
2023-03-21T00:27:57.245Z,19.50
2023-03-21T00:33:21.722Z,20.40
2023-03-21T00:38:26.704Z,20.50
2023-03-21T00:43:32.926Z,20.20
2023-03-21T00:48:45.969Z,21.10
2023-03-21T00:53:49.701Z,23.40
2023-03-21T00:58:52.588Z,22.70
2023-03-21T01:04:05.345Z,23.50
2023-03-21T01:09:27.241Z,23.10
2023-03-21T01:14:44.863Z,21.70
2023-03-21T01:19:52.539Z,23.00
2023-03-21T01:25:19.314Z,21.50
2023-03-21T01:30:33.916Z,20.40
2023-03-21T01:36:09.997Z,20.80
2023-03-21T01:41:45.830Z,20.30
2023-03-21T01:47:18.937Z,21.90
2023-03-21T01:52:42.002Z,20.50
2023-03-21T01:58:07.424Z,21.50
2023-03-21T02:03:50.077Z,20.70
2023-03-21T02:09:29.057Z,21.00
2023-03-21T02:14:36.594Z,22.70
2023-03-21T02:19:55.978Z,21.50
2023-03-21T02:25:40.000Z,21.20
2023-03-21T02:31:46.664Z,22.30
2023-03-21T02:37:11.384Z,22.90
2023-03-21T02:42:22.864Z,22.90
2023-03-21T02:47:53.135Z,25.20
2023-03-21T02:53:20.168Z,24.90
2023-03-21T02:58:32.888Z,26.50
2023-03-21T03:04:04.757Z,24.40
2023-03-21T03:09:58.895Z,27.20
2023-03-21T03:15:25.230Z,26.30
2023-03-21T03:21:39.098Z,26.00
2023-03-21T03:27:23.430Z,27.10
2023-03-21T03:33:09.454Z,24.80
2023-03-21T03:38:45.055Z,24.70
2023-03-21T03:44:26.106Z,26.00
2023-03-21T03:50:26.684Z,25.80
2023-03-21T03:55:49.900Z,25.90
2023-03-21T04:01:00.660Z,30.30
2023-03-21T04:06:29.104Z,32.10
2023-03-21T04:12:13.453Z,29.80
2023-03-21T04:17:30.874Z,27.70
2023-03-21T04:22:46.265Z,27.10
2023-03-21T04:28:06.776Z,22.20
2023-03-21T04:33:38.512Z,22.60
2023-03-21T04:39:12.957Z,20.50
2023-03-21T04:44:40.946Z,20.60
2023-03-21T04:49:56.397Z,19.80
2023-03-21T04:55:10.422Z,17.00
2023-03-21T05:00:30.294Z,16.30
2023-03-21T05:05:54.468Z,16.20
2023-03-21T05:10:57.940Z,17.40
2023-03-21T05:16:04.088Z,18.10
2023-03-21T05:21:30.178Z,18.20
2023-03-21T05:26:32.994Z,18.90
2023-03-21T05:31:50.349Z,20.20
2023-03-21T05:37:07.306Z,21.60
2023-03-21T05:42:21.476Z,21.80
2023-03-21T05:47:26.857Z,22.80
2023-03-21T05:52:35.612Z,22.90
2023-03-21T05:57:44.861Z,23.30
2023-03-21T06:03:14.325Z,23.60
2023-03-21T06:09:28.790Z,24.50
2023-03-21T06:14:33.811Z,26.90
2023-03-21T06:20:10.619Z,29.10
2023-03-21T06:25:26.799Z,34.40
2023-03-21T06:30:34.372Z,38.00
2023-03-21T06:36:10.286Z,34.70
2023-03-21T06:41:55.928Z,31.10
2023-03-21T06:47:08.906Z,30.20
2023-03-21T06:52:15.372Z,26.50
2023-03-21T06:57:46.524Z,25.40
2023-03-21T07:02:53.831Z,26.70
2023-03-21T07:08:03.645Z,27.20
2023-03-21T07:13:12.016Z,26.00
2023-03-21T07:18:43.297Z,26.70
2023-03-21T07:23:52.224Z,25.10
2023-03-21T07:29:00.685Z,24.00
2023-03-21T07:34:23.887Z,27.40
2023-03-21T07:39:34.780Z,24.30
2023-03-21T07:45:10.651Z,24.80
2023-03-21T07:50:49.165Z,26.30
2023-03-21T07:56:03.337Z,24.40
2023-03-21T08:01:08.805Z,25.50
2023-03-21T08:06:31.298Z,26.10
2023-03-21T08:11:33.806Z,28.20
2023-03-21T08:16:36.628Z,28.40
2023-03-21T08:21:40.104Z,25.00
2023-03-21T08:26:46.091Z,26.20
2023-03-21T08:31:56.255Z,27.80
2023-03-21T08:42:05.969Z,32.90
2023-03-21T08:47:20.439Z,33.40
2023-03-21T08:52:23.830Z,32.40
2023-03-21T08:57:29.128Z,32.80
2023-03-21T09:02:31.907Z,33.80
2023-03-21T09:07:50.662Z,30.20
2023-03-21T09:12:55.918Z,29.50
2023-03-21T09:18:13.157Z,29.90
2023-03-21T09:23:32.049Z,31.10
2023-03-21T09:28:43.268Z,28.70
2023-03-21T09:33:46.384Z,29.40
2023-03-21T09:38:52.602Z,28.40
2023-03-21T09:44:14.437Z,30.60
2023-03-21T09:50:17.268Z,31.10
2023-03-21T09:55:36.696Z,29.80
2023-03-21T10:00:48.653Z,29.10
2023-03-21T10:06:01.163Z,30.00
2023-03-21T10:11:34.849Z,28.50
2023-03-21T10:16:59.746Z,31.80
2023-03-21T10:22:05.462Z,32.30
2023-03-21T10:27:09.954Z,33.50
2023-03-21T10:32:25.346Z,33.30
2023-03-21T10:37:30.730Z,30.30
2023-03-21T10:42:50.403Z,32.10
2023-03-21T10:47:55.918Z,28.80
2023-03-21T10:53:01.837Z,29.40
2023-03-21T10:58:10.915Z,28.60
2023-03-21T11:03:34.255Z,28.20
2023-03-21T11:09:03.816Z,27.30
2023-03-21T11:14:09.584Z,30.10
2023-03-21T11:19:16.151Z,31.00
2023-03-21T11:24:20.200Z,30.90
2023-03-21T11:29:39.278Z,31.80
2023-03-21T11:34:48.836Z,30.50
2023-03-21T11:40:36.438Z,29.70
2023-03-21T11:45:58.826Z,30.10
2023-03-21T11:51:19.224Z,30.40
2023-03-21T12:02:16.528Z,30.10
2023-03-21T12:07:44.166Z,29.50
2023-03-21T12:13:03.926Z,27.80
2023-03-21T12:19:00.919Z,27.00
2023-03-21T12:24:18.614Z,34.50
2023-03-21T12:29:28.185Z,26.70
2023-03-21T12:34:36.615Z,31.30
2023-03-21T12:39:40.875Z,42.90
2023-03-21T12:44:52.359Z,33.20
2023-03-21T12:50:13.906Z,26.40
2023-03-21T12:55:23.963Z,25.70
2023-03-21T13:05:55.207Z,24.60
2023-03-21T13:11:00.254Z,22.20
2023-03-21T13:16:23.556Z,24.00
2023-03-21T13:21:55.786Z,25.60
2023-03-21T13:27:21.105Z,23.70
2023-03-21T13:32:39.179Z,21.80
2023-03-21T13:37:51.817Z,18.90
2023-03-21T13:43:22.113Z,15.40
2023-03-21T13:48:49.431Z,14.90
2023-03-21T13:54:17.642Z,17.20
2023-03-21T13:59:38.328Z,17.60
2023-03-21T14:05:00.191Z,16.10
2023-03-21T14:10:35.675Z,17.40
2023-03-21T14:16:12.765Z,17.50
2023-03-21T14:21:24.370Z,18.70
2023-03-21T14:32:24.904Z,17.10
2023-03-21T14:37:41.164Z,18.50
2023-03-21T14:42:48.500Z,19.20
2023-03-21T14:48:18.837Z,19.30
2023-03-21T14:53:30.577Z,18.50
2023-03-21T14:58:46.200Z,19.50
2023-03-21T15:03:53.099Z,17.60
2023-03-21T15:09:04.192Z,16.80
2023-03-21T15:14:30.385Z,19.60
2023-03-21T15:19:37.418Z,22.60
2023-03-21T15:24:55.913Z,20.30
2023-03-21T15:29:58.807Z,23.30
2023-03-21T15:35:08.705Z,31.20
2023-03-21T15:40:37.414Z,27.00
2023-03-21T15:45:56.202Z,24.60
2023-03-21T15:51:05.978Z,26.10
2023-03-21T15:56:20.263Z,25.30
2023-03-21T16:01:26.553Z,27.10
2023-03-21T16:06:35.221Z,29.20
2023-03-21T16:11:49.392Z,29.40
2023-03-21T16:16:51.660Z,31.70
2023-03-21T16:21:54.262Z,34.70
2023-03-21T16:26:59.314Z,39.60
2023-03-21T16:32:06.136Z,38.00
2023-03-21T16:37:12.367Z,38.70
2023-03-21T16:42:14.633Z,35.30
2023-03-21T16:47:23.840Z,39.20
2023-03-21T16:52:50.418Z,41.00
2023-03-21T16:57:53.982Z,39.70
2023-03-21T17:03:03.018Z,40.10
2023-03-21T17:08:06.513Z,37.10
2023-03-21T17:13:08.676Z,39.40
2023-03-21T17:18:21.204Z,42.30
2023-03-21T17:23:23.542Z,42.70
2023-03-21T17:28:28.243Z,50.10
2023-03-21T17:33:33.246Z,42.70
2023-03-21T17:38:51.564Z,46.00
2023-03-21T17:44:03.126Z,44.60
2023-03-21T17:49:06.525Z,46.40
2023-03-21T17:54:09.484Z,40.30
2023-03-21T17:59:14.258Z,40.20
2023-03-21T18:04:21.581Z,33.70
2023-03-21T18:09:58.014Z,37.10
2023-03-21T18:15:04.196Z,38.30
2023-03-21T18:20:10.339Z,35.60
2023-03-21T18:25:20.519Z,45.30
2023-03-21T18:30:56.937Z,44.50
2023-03-21T18:36:13.600Z,42.60
2023-03-21T18:41:19.829Z,43.50
2023-03-21T18:46:30.518Z,43.10
2023-03-21T18:51:33.014Z,45.10
2023-03-21T18:57:27.464Z,45.10
2023-03-21T19:02:03.237Z,45.20
2023-03-21T19:07:08.091Z,46.90
2023-03-21T19:12:10.556Z,50.50
2023-03-21T19:18:15.299Z,51.00
2023-03-21T19:22:45.157Z,53.10
2023-03-21T19:28:00.738Z,54.90
2023-03-21T19:33:05.302Z,52.80
2023-03-21T19:38:07.926Z,50.50
2023-03-21T19:43:32.126Z,56.10
2023-03-21T19:48:44.814Z,65.80
2023-03-21T19:53:50.318Z,70.10
2023-03-21T19:58:52.995Z,65.20
2023-03-21T20:03:58.798Z,70.30
2023-03-21T20:14:24.871Z,66.50
2023-03-21T20:19:27.239Z,66.50
2023-03-21T20:24:31.648Z,68.90
2023-03-21T20:30:10.777Z,69.40
2023-03-21T20:36:16.392Z,72.40
2023-03-21T20:40:55.369Z,72.80
2023-03-21T20:46:12.793Z,74.90
2023-03-21T20:56:42.895Z,100.00
2023-03-21T21:01:45.230Z,112.00
2023-03-21T21:06:50.903Z,121.50
2023-03-21T21:12:06.562Z,122.20
2023-03-21T21:22:59.649Z,138.80
2023-03-21T21:28:09.170Z,126.70
2023-03-21T21:33:11.473Z,118.30
2023-03-21T21:38:23.443Z,102.00
2023-03-21T21:43:27.842Z,101.00
2023-03-21T21:48:34.124Z,87.50
2023-03-21T21:53:36.951Z,70.50
2023-03-21T21:58:46.089Z,71.00
2023-03-21T22:03:48.684Z,73.50
2023-03-21T22:08:52.133Z,73.00
2023-03-21T22:14:01.686Z,71.80
2023-03-21T22:19:04.305Z,64.80
2023-03-21T22:24:09.803Z,66.50
2023-03-21T22:29:14.645Z,65.70
2023-03-21T22:34:17.140Z,76.40
2023-03-21T22:39:26.481Z,76.10
2023-03-21T22:44:38.934Z,80.20
2023-03-21T22:49:46.368Z,82.60
2023-03-21T22:54:55.662Z,96.60
2023-03-21T23:00:01.454Z,95.60
2023-03-21T23:05:08.971Z,96.90
2023-03-21T23:10:13.446Z,97.20
2023-03-21T23:15:25.429Z,96.40
2023-03-21T23:20:27.627Z,94.40
2023-03-21T23:25:55.739Z,106.50
2023-03-21T23:30:58.210Z,110.90
2023-03-21T23:36:03.435Z,102.90
2023-03-21T23:41:18.950Z,100.60
2023-03-21T23:46:23.686Z,93.70
2023-03-21T23:51:28.889Z,102.00
2023-03-21T23:56:35.763Z,103.30
